CheckWX is a tool to help pilots better visualize weather data.  It is not intended as a substitute for an official pre-flight weather briefing.

00:09:35 UTC

C65 METAR
Plymouth Municipal Airport
Plymouth, Indiana, USA
Current

15 mins ago

KC65 222355Z AUTO 00000KT 10SM CLR M01/M03 A3013 RMK A01
Observed
Nov-22 @ 23:55 UTC
Visibility
10 SM
Flight Rules
VFR
Cloud Levels
  • Clear skies
Temperature
-1°C / 30°F
Dewpoint
-3°C / 27°F
Humidity
86%
Altimeter
30.13" Hg
Pressure
1020.32 hPa
Previous

35 mins ago

KC65 222335Z AUTO 00000KT 10SM CLR M01/M04 A3013 RMK A01
Observed
Nov-22 @ 23:35 UTC
Visibility
10 SM
Flight Rules
VFR
Cloud Levels
  • Clear skies
Temperature
-1°C / 30°F
Dewpoint
-4°C / 25°F
Humidity
80%
Altimeter
30.13" Hg
Pressure
1020.32 hPa
Previous

55 mins ago

KC65 222315Z AUTO 00000KT 10SM CLR M00/M04 A3013 RMK A01
Observed
Nov-22 @ 23:15 UTC
Visibility
10 SM
Flight Rules
VFR
Cloud Levels
  • Clear skies
Temperature
C / 32°F
Dewpoint
-4°C / 25°F
Humidity
75%
Altimeter
30.13" Hg
Pressure
1020.32 hPa